sensor_id;sensor_type;location;lat;lon;timestamp;P1;durP1;ratioP1;P2;durP2;ratioP2
47259;SDS011;32999;52.412;4.890;2023-01-29T00:24:18;7.10;;;4.13;;
47259;SDS011;32999;52.412;4.890;2023-01-29T00:30:05;7.10;;;3.70;;
47259;SDS011;32999;52.412;4.890;2023-01-29T00:35:12;6.57;;;3.63;;
47259;SDS011;32999;52.412;4.890;2023-01-29T00:40:21;8.52;;;3.50;;
47259;SDS011;32999;52.412;4.890;2023-01-29T00:45:54;4.95;;;2.95;;
47259;SDS011;32999;52.412;4.890;2023-01-29T01:39:27;14.65;;;7.90;;
47259;SDS011;32999;52.412;4.890;2023-01-29T02:02:21;13.77;;;7.78;;
47259;SDS011;32999;52.412;4.890;2023-01-29T02:08:10;10.35;;;5.53;;
47259;SDS011;32999;52.412;4.890;2023-01-29T02:13:45;10.82;;;5.57;;
47259;SDS011;32999;52.412;4.890;2023-01-29T02:18:56;15.52;;;5.95;;
47259;SDS011;32999;52.412;4.890;2023-01-29T02:24:10;10.75;;;7.32;;
47259;SDS011;32999;52.412;4.890;2023-01-29T02:30:08;11.52;;;6.97;;
47259;SDS011;32999;52.412;4.890;2023-01-29T02:35:58;10.95;;;6.18;;
47259;SDS011;32999;52.412;4.890;2023-01-29T02:53:09;11.30;;;6.80;;
47259;SDS011;32999;52.412;4.890;2023-01-29T02:58:51;9.90;;;6.57;;
47259;SDS011;32999;52.412;4.890;2023-01-29T03:04:05;17.25;;;8.25;;
47259;SDS011;32999;52.412;4.890;2023-01-29T03:46:26;14.57;;;7.30;;
47259;SDS011;32999;52.412;4.890;2023-01-29T03:51:37;17.48;;;9.10;;
47259;SDS011;32999;52.412;4.890;2023-01-29T03:56:52;11.25;;;7.22;;
47259;SDS011;32999;52.412;4.890;2023-01-29T04:08:21;14.45;;;8.50;;
47259;SDS011;32999;52.412;4.890;2023-01-29T04:13:32;16.02;;;9.00;;
47259;SDS011;32999;52.412;4.890;2023-01-29T04:18:40;15.10;;;8.90;;
47259;SDS011;32999;52.412;4.890;2023-01-29T04:23:55;13.07;;;7.75;;
47259;SDS011;32999;52.412;4.890;2023-01-29T04:28:58;15.32;;;7.82;;
47259;SDS011;32999;52.412;4.890;2023-01-29T04:40:11;13.13;;;8.43;;
47259;SDS011;32999;52.412;4.890;2023-01-29T04:58:14;15.95;;;8.88;;
47259;SDS011;32999;52.412;4.890;2023-01-29T05:03:29;17.02;;;9.45;;
47259;SDS011;32999;52.412;4.890;2023-01-29T05:33:01;22.30;;;11.38;;
47259;SDS011;32999;52.412;4.890;2023-01-29T05:44:46;18.77;;;11.05;;
47259;SDS011;32999;52.412;4.890;2023-01-29T05:50:35;20.20;;;10.20;;
47259;SDS011;32999;52.412;4.890;2023-01-29T05:56:26;15.68;;;9.60;;
47259;SDS011;32999;52.412;4.890;2023-01-29T06:01:52;17.47;;;10.03;;
47259;SDS011;32999;52.412;4.890;2023-01-29T06:07:41;17.70;;;10.00;;
47259;SDS011;32999;52.412;4.890;2023-01-29T06:13:00;21.25;;;13.68;;
47259;SDS011;32999;52.412;4.890;2023-01-29T06:18:07;18.85;;;10.38;;
47259;SDS011;32999;52.412;4.890;2023-01-29T06:29:52;15.07;;;9.20;;
47259;SDS011;32999;52.412;4.890;2023-01-29T06:35:17;18.20;;;11.13;;
47259;SDS011;32999;52.412;4.890;2023-01-29T06:40:50;16.35;;;10.15;;
47259;SDS011;32999;52.412;4.890;2023-01-29T06:52:57;21.27;;;11.18;;
47259;SDS011;32999;52.412;4.890;2023-01-29T06:59:16;19.15;;;11.23;;
47259;SDS011;32999;52.412;4.890;2023-01-29T08:16:17;30.73;;;15.85;;
47259;SDS011;32999;52.412;4.890;2023-01-29T08:34:15;24.58;;;14.00;;
47259;SDS011;32999;52.412;4.890;2023-01-29T12:49:36;28.15;;;16.27;;
47259;SDS011;32999;52.412;4.890;2023-01-29T13:43:04;38.97;;;19.10;;
47259;SDS011;32999;52.412;4.890;2023-01-29T13:48:07;45.13;;;19.08;;
47259;SDS011;32999;52.412;4.890;2023-01-29T15:11:39;24.77;;;12.88;;
47259;SDS011;32999;52.412;4.890;2023-01-29T15:52:23;27.15;;;11.65;;
47259;SDS011;32999;52.412;4.890;2023-01-29T15:57:33;22.23;;;10.93;;
47259;SDS011;32999;52.412;4.890;2023-01-29T16:02:56;29.52;;;14.70;;
47259;SDS011;32999;52.412;4.890;2023-01-29T16:08:34;27.70;;;11.35;;
47259;SDS011;32999;52.412;4.890;2023-01-29T16:19:32;23.38;;;11.32;;
47259;SDS011;32999;52.412;4.890;2023-01-29T16:24:36;26.73;;;12.02;;
47259;SDS011;32999;52.412;4.890;2023-01-29T16:29:56;23.00;;;10.30;;
47259;SDS011;32999;52.412;4.890;2023-01-29T16:40:35;21.98;;;10.35;;
47259;SDS011;32999;52.412;4.890;2023-01-29T16:57:46;25.00;;;12.32;;
47259;SDS011;32999;52.412;4.890;2023-01-29T17:03:22;26.90;;;11.57;;
47259;SDS011;32999;52.412;4.890;2023-01-29T17:08:28;18.13;;;9.73;;
47259;SDS011;32999;52.412;4.890;2023-01-29T17:13:47;29.02;;;11.15;;
47259;SDS011;32999;52.412;4.890;2023-01-29T17:24:35;25.42;;;12.98;;
47259;SDS011;32999;52.412;4.890;2023-01-29T17:30:11;20.95;;;10.55;;
47259;SDS011;32999;52.412;4.890;2023-01-29T17:35:22;43.35;;;22.10;;
47259;SDS011;32999;52.412;4.890;2023-01-29T17:40:32;22.88;;;10.88;;
47259;SDS011;32999;52.412;4.890;2023-01-29T17:45:39;24.85;;;11.02;;
47259;SDS011;32999;52.412;4.890;2023-01-29T17:50:51;27.27;;;11.43;;
47259;SDS011;32999;52.412;4.890;2023-01-29T18:13:56;25.90;;;12.10;;
47259;SDS011;32999;52.412;4.890;2023-01-29T18:19:27;27.17;;;13.90;;
47259;SDS011;32999;52.412;4.890;2023-01-29T18:36:21;20.52;;;11.75;;
47259;SDS011;32999;52.412;4.890;2023-01-29T18:41:51;23.20;;;13.13;;
47259;SDS011;32999;52.412;4.890;2023-01-29T18:47:36;26.23;;;12.80;;
47259;SDS011;32999;52.412;4.890;2023-01-29T18:58:48;23.15;;;13.52;;
47259;SDS011;32999;52.412;4.890;2023-01-29T19:04:20;29.42;;;15.13;;
47259;SDS011;32999;52.412;4.890;2023-01-29T19:09:43;23.17;;;14.10;;
47259;SDS011;32999;52.412;4.890;2023-01-29T19:15:17;24.90;;;13.15;;
47259;SDS011;32999;52.412;4.890;2023-01-29T19:20:57;24.17;;;13.48;;
47259;SDS011;32999;52.412;4.890;2023-01-29T19:26:54;24.02;;;14.00;;
47259;SDS011;32999;52.412;4.890;2023-01-29T19:32:39;26.05;;;12.90;;
47259;SDS011;32999;52.412;4.890;2023-01-29T19:43:41;27.90;;;13.77;;
47259;SDS011;32999;52.412;4.890;2023-01-29T19:49:02;21.20;;;11.88;;
47259;SDS011;32999;52.412;4.890;2023-01-29T19:54:13;25.10;;;12.18;;
47259;SDS011;32999;52.412;4.890;2023-01-29T20:54:33;13.10;;;5.05;;
47259;SDS011;32999;52.412;4.890;2023-01-29T21:18:42;13.02;;;4.15;;
47259;SDS011;32999;52.412;4.890;2023-01-29T21:24:26;12.30;;;4.65;;
47259;SDS011;32999;52.412;4.890;2023-01-29T21:30:11;18.80;;;4.72;;
47259;SDS011;32999;52.412;4.890;2023-01-29T21:41:37;10.98;;;5.05;;
47259;SDS011;32999;52.412;4.890;2023-01-29T21:46:57;17.95;;;4.88;;
47259;SDS011;32999;52.412;4.890;2023-01-29T21:51:59;10.90;;;4.40;;
47259;SDS011;32999;52.412;4.890;2023-01-29T21:57:02;15.75;;;5.47;;
47259;SDS011;32999;52.412;4.890;2023-01-29T22:02:05;10.90;;;5.25;;
47259;SDS011;32999;52.412;4.890;2023-01-29T22:07:22;14.20;;;5.50;;
47259;SDS011;32999;52.412;4.890;2023-01-29T22:12:54;13.13;;;5.72;;
47259;SDS011;32999;52.412;4.890;2023-01-29T22:18:14;11.95;;;5.20;;
47259;SDS011;32999;52.412;4.890;2023-01-29T22:23:16;12.00;;;5.63;;
47259;SDS011;32999;52.412;4.890;2023-01-29T22:28:19;13.00;;;5.82;;
47259;SDS011;32999;52.412;4.890;2023-01-29T22:33:21;18.42;;;5.97;;
47259;SDS011;32999;52.412;4.890;2023-01-29T22:38:25;14.68;;;5.38;;
47259;SDS011;32999;52.412;4.890;2023-01-29T22:43:32;16.20;;;5.60;;
47259;SDS011;32999;52.412;4.890;2023-01-29T22:48:37;14.95;;;5.57;;
47259;SDS011;32999;52.412;4.890;2023-01-29T22:59:09;16.70;;;5.82;;
47259;SDS011;32999;52.412;4.890;2023-01-29T23:04:12;12.25;;;4.50;;
47259;SDS011;32999;52.412;4.890;2023-01-29T23:09:38;11.93;;;4.30;;
47259;SDS011;32999;52.412;4.890;2023-01-29T23:15:19;14.15;;;3.70;;
47259;SDS011;32999;52.412;4.890;2023-01-29T23:20:23;14.40;;;5.57;;
47259;SDS011;32999;52.412;4.890;2023-01-29T23:25:25;11.35;;;4.80;;
47259;SDS011;32999;52.412;4.890;2023-01-29T23:30:51;12.02;;;4.18;;
47259;SDS011;32999;52.412;4.890;2023-01-29T23:37:12;19.23;;;4.85;;
47259;SDS011;32999;52.412;4.890;2023-01-29T23:54:15;21.02;;;4.70;;
47259;SDS011;32999;52.412;4.890;2023-01-29T23:59:27;17.35;;;3.88;;
